Time;durP1;ratioP1;P1;durP2;ratioP2;P2;SDS_P1;SDS_P2;PMS_P1;PMS_P2;Temp;Humidity;BMP_temperature;BMP_pressure;BME280_temperature;BME280_humidity;BME280_pressure;Samples;Min_cycle;Max_cycle;Signal;HPM_P1;HPM_P2
2023/05/08 00:08:00;;;;;;;6.8;3.3;;;;;;;6.2;83.2;99630;;;;
2023/05/08 00:17:54;;;;;;;6.8;3.3;;;;;;;6.2;83.2;99640;;;;
2023/05/08 00:27:54;;;;;;;6.8;3.3;;;;;;;6.1;83.1;99630;;;;
2023/05/08 00:38:54;;;;;;;7.3;3.3;;;;;;;6;82.9;99640;;;;
2023/05/08 00:49:54;;;;;;;7.3;3.3;;;;;;;5.9;81.5;99640;;;;
2023/05/08 00:59:54;;;;;;;7.3;3.3;;;;;;;5.9;81.2;99650;;;;
2023/05/08 01:09:54;;;;;;;6.3;3.4;;;;;;;5.8;81.3;99670;;;;
2023/05/08 01:19:54;;;;;;;6.3;3.4;;;;;;;5.7;81.6;99660;;;;
2023/05/08 01:29:54;;;;;;;6.3;3.4;;;;;;;5.8;81.5;99660;;;;
2023/05/08 01:39:54;;;;;;;4.7;2.4;;;;;;;5.7;81;99670;;;;
2023/05/08 01:50:54;;;;;;;4.7;2.4;;;;;;;5.7;80.7;99680;;;;
2023/05/08 02:00:54;;;;;;;4.7;2.4;;;;;;;5.7;81;99670;;;;
2023/05/08 02:11:54;;;;;;;5;2.6;;;;;;;5.6;81.1;99670;;;;
2023/05/08 02:22:54;;;;;;;5;2.6;;;;;;;5.8;80.7;99670;;;;
2023/05/08 02:32:54;;;;;;;5.5;2.9;;;;;;;5.8;80.7;99670;;;;
2023/05/08 02:42:54;;;;;;;5.5;2.9;;;;;;;5.6;81;99680;;;;
2023/05/08 02:53:55;;;;;;;5.5;2.9;;;;;;;5.7;81.2;99690;;;;
2023/05/08 03:04:54;;;;;;;5.1;2.3;;;;;;;5.7;81.9;99690;;;;
2023/05/08 03:14:55;;;;;;;5.1;2.3;;;;;;;5.7;82;99680;;;;
2023/05/08 03:25:54;;;;;;;5.1;2.3;;;;;;;5.6;82.1;99690;;;;
2023/05/08 03:35:54;;;;;;;7.9;3.5;;;;;;;5.5;82.4;99700;;;;
2023/05/08 03:46:54;;;;;;;7.9;3.5;;;;;;;5.4;82.1;99700;;;;
2023/05/08 03:57:55;;;;;;;7.9;3.5;;;;;;;5.4;82.1;99700;;;;
2023/05/08 04:07:54;;;;;;;6.5;3.6;;;;;;;5.4;82;99720;;;;
2023/05/08 04:18:54;;;;;;;6.5;3.6;;;;;;;5.3;81.7;99720;;;;
2023/05/08 04:29:55;;;;;;;6.5;3.6;;;;;;;5.2;80.3;99740;;;;
2023/05/08 04:40:54;;;;;;;6.2;3.4;;;;;;;5.3;80.4;99760;;;;
2023/05/08 04:50:54;;;;;;;6.2;3.4;;;;;;;5.5;79.3;99760;;;;
2023/05/08 05:00:55;;;;;;;6.2;3.4;;;;;;;5.6;78.3;99780;;;;
2023/05/08 05:10:54;;;;;;;5.4;3.2;;;;;;;5.6;78.8;99790;;;;
2023/05/08 05:21:54;;;;;;;5.4;3.2;;;;;;;5.8;78.5;99800;;;;
2023/05/08 05:32:54;;;;;;;6.8;3.1;;;;;;;6;77.6;99800;;;;
2023/05/08 05:43:54;;;;;;;6.8;3.1;;;;;;;6.2;76.7;99810;;;;
2023/05/08 05:53:55;;;;;;;6.8;3.1;;;;;;;6.3;77.4;99810;;;;
2023/05/08 06:04:54;;;;;;;5.9;3.2;;;;;;;6.5;76.5;99820;;;;
2023/05/08 06:15:55;;;;;;;5.9;3.2;;;;;;;6.5;76.4;99830;;;;
2023/05/08 06:25:54;;;;;;;5.9;3.2;;;;;;;6.4;77.1;99840;;;;
2023/05/08 06:35:54;;;;;;;5.3;3.2;;;;;;;6.7;76;99840;;;;
2023/05/08 06:46:54;;;;;;;5.3;3.2;;;;;;;6.8;74.9;99840;;;;
2023/05/08 06:56:54;;;;;;;5.3;3.2;;;;;;;7.7;74.1;99850;;;;
2023/05/08 07:06:55;;;;;;;6;3.3;;;;;;;7.8;72.4;99860;;;;
2023/05/08 07:17:54;;;;;;;6;3.3;;;;;;;8.1;70.5;99870;;;;
2023/05/08 07:27:54;;;;;;;6;3.3;;;;;;;8;69.5;99870;;;;
2023/05/08 07:37:55;;;;;;;5.3;3.1;;;;;;;8.3;69.4;99870;;;;
2023/05/08 07:48:55;;;;;;;5.3;3.1;;;;;;;8.3;69;99870;;;;
2023/05/08 07:58:54;;;;;;;5.3;3.1;;;;;;;8.7;68.8;99870;;;;
2023/05/08 08:09:55;;;;;;;5.7;3.4;;;;;;;9.2;67.4;99870;;;;
2023/05/08 08:20:55;;;;;;;5.7;3.4;;;;;;;9.5;65.5;99870;;;;
2023/05/08 08:31:55;;;;;;;5.8;3.1;;;;;;;10.2;65;99870;;;;
2023/05/08 08:41:55;;;;;;;5.8;3.1;;;;;;;9.8;63.1;99870;;;;
2023/05/08 08:51:55;;;;;;;5.8;3.1;;;;;;;9.8;65.5;99880;;;;
2023/05/08 09:01:54;;;;;;;6.5;3.3;;;;;;;10.3;63.6;99880;;;;
2023/05/08 09:12:54;;;;;;;6.5;3.3;;;;;;;10.6;61.8;99890;;;;
2023/05/08 09:22:54;;;;;;;6.5;3.3;;;;;;;10.3;63.7;99890;;;;
2023/05/08 09:32:55;;;;;;;5.4;3;;;;;;;10;64.2;99890;;;;
2023/05/08 09:42:54;;;;;;;5.4;3;;;;;;;10.5;62.7;99890;;;;
2023/05/08 09:53:54;;;;;;;5.4;3;;;;;;;10.3;62.5;99900;;;;
2023/05/08 10:03:54;;;;;;;7.2;3.3;;;;;;;10.6;62.1;99900;;;;
2023/05/08 10:14:55;;;;;;;7.2;3.3;;;;;;;10.7;61.4;99900;;;;
2023/05/08 10:25:54;;;;;;;7.2;3.3;;;;;;;10.5;62;99890;;;;
2023/05/08 10:35:55;;;;;;;8.2;3.7;;;;;;;11;62.5;99890;;;;
2023/05/08 10:46:55;;;;;;;8.2;3.7;;;;;;;11.1;62;99880;;;;
2023/05/08 10:57:55;;;;;;;8.2;3.7;;;;;;;10.9;61.5;99890;;;;
2023/05/08 11:07:55;;;;;;;6.8;4.1;;;;;;;10.8;62.2;99880;;;;
2023/05/08 11:18:54;;;;;;;6.8;4.1;;;;;;;11.2;61.9;99880;;;;
2023/05/08 11:28:55;;;;;;;6.8;4.1;;;;;;;11.6;59.9;99870;;;;
2023/05/08 11:39:54;;;;;;;6.9;3.7;;;;;;;11.8;59.8;99860;;;;
2023/05/08 11:49:54;;;;;;;6.9;3.7;;;;;;;12;57.7;99870;;;;
2023/05/08 12:00:54;;;;;;;6.2;3.7;;;;;;;11.1;59.2;99870;;;;
2023/05/08 12:10:55;;;;;;;6.2;3.7;;;;;;;11.6;59.3;99850;;;;
2023/05/08 12:20:55;;;;;;;6.2;3.7;;;;;;;12.4;56.8;99850;;;;
2023/05/08 12:31:55;;;;;;;7.5;4.4;;;;;;;12.5;55.8;99840;;;;
2023/05/08 12:42:54;;;;;;;7.5;4.4;;;;;;;13.1;54.9;99830;;;;
2023/05/08 12:52:55;;;;;;;7.5;4.4;;;;;;;12.9;54.9;99840;;;;
2023/05/08 13:03:54;;;;;;;7;3.9;;;;;;;12.3;56.7;99840;;;;
2023/05/08 13:13:55;;;;;;;7;3.9;;;;;;;12;57.2;99830;;;;
2023/05/08 13:24:54;;;;;;;7;3.9;;;;;;;12.2;56.8;99840;;;;
2023/05/08 13:35:55;;;;;;;5.6;2.8;;;;;;;12.4;54.9;99830;;;;
2023/05/08 13:46:54;;;;;;;5.6;2.8;;;;;;;12.5;55.2;99830;;;;
2023/05/08 13:56:54;;;;;;;5.6;2.8;;;;;;;11.9;56.1;99830;;;;
2023/05/08 14:06:54;;;;;;;4.6;2.8;;;;;;;11.6;57.7;99830;;;;
2023/05/08 14:17:54;;;;;;;4.6;2.8;;;;;;;11.6;57.6;99820;;;;
2023/05/08 14:28:55;;;;;;;4.6;2.8;;;;;;;12.4;55.3;99820;;;;
2023/05/08 14:38:54;;;;;;;6.7;3.9;;;;;;;12;55.1;99820;;;;
2023/05/08 14:48:55;;;;;;;6.7;3.9;;;;;;;11.6;57;99820;;;;
2023/05/08 14:59:55;;;;;;;6.7;3.9;;;;;;;12.1;57.3;99830;;;;
2023/05/08 15:09:54;;;;;;;5.3;3.3;;;;;;;12.3;55.4;99820;;;;
2023/05/08 15:19:54;;;;;;;5.3;3.3;;;;;;;12.2;56.1;99820;;;;
2023/05/08 15:30:55;;;;;;;5.9;3.2;;;;;;;11.5;57.4;99820;;;;
2023/05/08 15:41:55;;;;;;;5.9;3.2;;;;;;;11.8;57.6;99810;;;;
2023/05/08 15:51:55;;;;;;;5.9;3.2;;;;;;;14.6;53.4;99800;;;;
2023/05/08 16:01:55;;;;;;;10.7;4.2;;;;;;;16.3;45.8;99790;;;;
2023/05/08 16:12:54;;;;;;;10.7;4.2;;;;;;;14.4;49.6;99790;;;;
2023/05/08 16:23:55;;;;;;;10.7;4.2;;;;;;;12.7;53.6;99800;;;;
2023/05/08 16:33:55;;;;;;;8.8;5.3;;;;;;;12.3;54.5;99790;;;;
2023/05/08 16:44:55;;;;;;;8.8;5.3;;;;;;;11.6;57;99800;;;;
2023/05/08 16:55:55;;;;;;;8.8;5.3;;;;;;;11.8;57.6;99800;;;;
2023/05/08 17:05:55;;;;;;;10.1;7.4;;;;;;;12.3;57;99790;;;;
2023/05/08 17:16:55;;;;;;;10.1;7.4;;;;;;;13.5;54.4;99780;;;;
2023/05/08 17:26:55;;;;;;;10.1;7.4;;;;;;;12.4;56;99800;;;;
2023/05/08 17:37:55;;;;;;;5.9;4;;;;;;;11.6;57.6;99800;;;;
2023/05/08 17:48:55;;;;;;;5.9;4;;;;;;;10.9;59.2;99800;;;;
2023/05/08 17:58:55;;;;;;;5.9;4;;;;;;;10.3;61.5;99800;;;;
2023/05/08 18:08:55;;;;;;;8.4;4.1;;;;;;;9.7;61.4;99800;;;;
2023/05/08 18:18:55;;;;;;;8.4;4.1;;;;;;;9.1;63.2;99800;;;;
2023/05/08 18:29:55;;;;;;;8.4;4.1;;;;;;;8.6;65.3;99820;;;;
2023/05/08 18:39:55;;;;;;;10.2;6.2;;;;;;;8.3;67.3;99820;;;;
2023/05/08 18:49:56;;;;;;;10.2;6.2;;;;;;;8.2;69.6;99820;;;;
2023/05/08 18:59:55;;;;;;;10.2;6.2;;;;;;;8.1;69.5;99830;;;;
2023/05/08 19:10:55;;;;;;;13.7;7;;;;;;;7.7;70.1;99830;;;;
2023/05/08 19:21:55;;;;;;;13.7;7;;;;;;;7.4;69.9;99830;;;;
2023/05/08 19:31:55;;;;;;;16;7.9;;;;;;;7.1;71.3;99830;;;;
2023/05/08 19:42:55;;;;;;;16;7.9;;;;;;;6.8;71.5;99830;;;;
2023/05/08 19:53:55;;;;;;;16;7.9;;;;;;;6.5;71.8;99820;;;;
2023/05/08 20:03:55;;;;;;;11.5;6.4;;;;;;;6.2;72.6;99820;;;;
2023/05/08 20:14:55;;;;;;;11.5;6.4;;;;;;;6;73.4;99810;;;;
2023/05/08 20:25:55;;;;;;;11.5;6.4;;;;;;;5.8;75;99800;;;;
2023/05/08 20:36:56;;;;;;;14.9;6.3;;;;;;;5.8;75.8;99810;;;;
2023/05/08 20:46:55;;;;;;;14.9;6.3;;;;;;;5.8;76.1;99800;;;;
2023/05/08 20:56:55;;;;;;;14.9;6.3;;;;;;;5.8;76;99800;;;;
2023/05/08 21:08:01;;;;;;;8.5;4.3;;;;;;;5.7;75.8;99790;;;;
2023/05/08 21:18:55;;;;;;;8.5;4.3;;;;;;;5.6;75.8;99790;;;;
2023/05/08 21:28:57;;;;;;;8.5;4.3;;;;;;;5.4;76.1;99780;;;;
2023/05/08 21:38:55;;;;;;;11;4.7;;;;;;;5.2;76.6;99780;;;;
2023/05/08 21:49:56;;;;;;;11;4.7;;;;;;;5.1;77.6;99760;;;;
2023/05/08 21:59:55;;;;;;;9.6;4.9;;;;;;;5.1;77.6;99760;;;;
2023/05/08 22:10:55;;;;;;;9.6;4.9;;;;;;;5.1;78.2;99750;;;;
2023/05/08 22:20:55;;;;;;;9.6;4.9;;;;;;;5.1;78;99750;;;;
2023/05/08 22:30:55;;;;;;;8;4.4;;;;;;;5.2;78.4;99750;;;;
2023/05/08 22:41:55;;;;;;;8;4.4;;;;;;;5.2;78.3;99750;;;;
2023/05/08 22:52:55;;;;;;;8;4.4;;;;;;;5.1;78.3;99730;;;;
2023/05/08 23:02:55;;;;;;;7.9;4.4;;;;;;;5.1;78.8;99740;;;;
2023/05/08 23:13:55;;;;;;;7.9;4.4;;;;;;;5;78.6;99740;;;;
2023/05/08 23:24:55;;;;;;;7.9;4.4;;;;;;;4.6;77.9;99730;;;;
2023/05/08 23:35:55;;;;;;;8.9;4.4;;;;;;;4.3;77.9;99730;;;;
2023/05/08 23:46:55;;;;;;;8.9;4.4;;;;;;;4;79.5;99720;;;;
2023/05/08 23:57:55;;;;;;;8.9;4.4;;;;;;;3.7;80.5;99710;;;;
